logo dgac
Martes 28 de Mayo del 2024
Buscar por aerodromo o helipuerto
Ingrese nombre de aeródromo, localidad o designador OACI:

Aeródromo: Balmaceda (PUB) (SCBA)

Ubicación: Balmaceda, XI Región, Chile (45º 54' 51'' S, 71º 41' 24'' W) Ver ubicación en el mapa

Pistas

Luces
Orientación Dimensión Pendiente Superficie Resistencia APCH THR RWY PAPI
09/27 2501 x 45 0,67 Hormigón PCN 47 R/B/X/T No
Horas de operación HJ
Elevación 525 m / 1722 ft
Otra Información Adm : D.G.A.C
Uso : PUB
Ubicado : 500 m S de Balmaceda
TEL : Central Telefónica +56672272126 - ARO +56672272104
email : aro.balmaceda@dgac.gob.cl

Otra información ver AIP-Chile Volumen I AD 3.9-2.1-B
CCCM/FCCV Descargar CCCM/FCCV
andera de Chile
Mapa de Balmaceda (PUB) (SCBA)

Último METAR

METAR SCBA 280400Z AUTO VRB04KT 9999 -RA BKN030/// OVC035/// 04/03 Q1011

Último TAF

TAF SCBA 280407Z 2806/2906 30006KT 8000 -RA BKN020 OVC035 TN01/2809Z TX06/2818Z BECMG 2818/2820 6000 RA SCT015 OVC025 BECMG 2902/2904 30015G30KT 9999 NSW SCT045

Últimas fotos cámaras

Imagen aerodromo Balmaceda (PUB) (SCBA) Este tomada el 28-05-2024 06:27:49 Imagen aerodromo Balmaceda (PUB) (SCBA) Oeste tomada el 28-05-2024 06:31:48

Último NOTAM

C2271/24 NOTAMR C2182/24 Q)SCTZ/QMPLT/IV/M/A/000/999/4555S07141W005 A)SCBA B)2405241849 C)2405312359 E)PRKG 1 ACFT PMD SUPERIOR A 5700 KG, LTD A SALIDA TRACTADA AL ABANDONAR ZONA